POGODA: Poland

Lotnisko: Szczecin-Goleniow

METAR KOD: EPSC


METAR: EPSC 020200Z 13003KT 1500 BR BKN002 14/14 Q1028


BLOK
Pogoda METAR
020200Z
Dzien: 02, Godzina: 02:00 UTC.
13003KT
Wiatr z kierunku 130, o predkosci 6 km/h
1500
Widzialnosc pozioma 1500 m.
BR
zamglenia
BKN002
5/8 - 7/8 pokrycia nieba, chmurami o podstawie: 60 metrow
14/14
Temperatura: powietrze 14°C, punkt rosy 14°C . Wilgotnosc wzgledna 100 %
Q1028
Cisnienie: 1028 hPa

Pogoda na innym lotnisku

Pogoda Gdansk-Rebiechowo WEATHER Poland  
Pogoda Katowice WEATHER Poland  
Pogoda Krakow WEATHER Poland  
Pogoda Poznan WEATHER Poland  
Pogoda Rzeszow-Jasionka WEATHER Poland  
Pogoda Szczecin WEATHER Poland  
Pogoda Warszawa-Okecie WEATHER Poland  
Pogoda Wroclaw Ii WEATHER Poland  

Pogoda w inny kraju

Strona startowa

(C) by GREGOR 2007
Ogłoszenia Towarzyskie